createdAt,value
2023-04-03T00:09:32.062Z,7.50
2023-04-03T00:24:41.487Z,7.50
2023-04-03T00:39:47.673Z,7.13
2023-04-03T00:54:56.360Z,7.13
2023-04-03T01:10:05.000Z,6.94
2023-04-03T01:25:10.992Z,7.13
2023-04-03T01:40:16.803Z,6.63
2023-04-03T01:55:22.589Z,6.69
2023-04-03T02:10:28.521Z,6.56
2023-04-03T02:25:39.001Z,6.63
2023-04-03T02:40:44.993Z,6.69
2023-04-03T02:55:53.949Z,6.44
2023-04-03T03:10:59.915Z,6.44
2023-04-03T03:26:10.698Z,6.25
2023-04-03T03:41:22.067Z,6.38
2023-04-03T03:56:31.717Z,6.19
2023-04-03T04:11:37.946Z,6.19
2023-04-03T04:26:44.154Z,6.38
2023-04-03T04:41:52.908Z,6.06
2023-04-03T04:56:58.502Z,5.88
2023-04-03T05:12:06.584Z,6.13
2023-04-03T05:27:12.457Z,5.88
2023-04-03T05:42:18.310Z,6.00
2023-04-03T05:57:24.469Z,5.94
2023-04-03T06:12:31.321Z,5.94
2023-04-03T06:27:37.176Z,5.81
2023-04-03T06:42:42.879Z,6.00
2023-04-03T06:57:48.854Z,5.94
2023-04-03T07:12:55.321Z,6.13
2023-04-03T07:28:01.052Z,6.25
2023-04-03T07:43:07.129Z,6.25
2023-04-03T07:58:15.713Z,6.75
2023-04-03T08:13:22.080Z,7.50
2023-04-03T08:28:27.869Z,7.63
2023-04-03T08:43:42.593Z,7.25
2023-04-03T09:14:45.661Z,8.44
2023-04-03T09:29:55.243Z,9.06
2023-04-03T09:45:03.251Z,9.06
2023-04-03T10:00:22.831Z,9.75
2023-04-03T10:15:32.437Z,8.56
2023-04-03T10:30:46.525Z,8.56
2023-04-03T10:45:59.763Z,9.50
2023-04-03T11:01:11.466Z,9.75
2023-04-03T11:16:23.586Z,10.69
2023-04-03T11:31:43.558Z,10.94
2023-04-03T11:46:59.637Z,11.63
2023-04-03T12:02:31.701Z,11.50
2023-04-03T12:17:41.448Z,11.25
2023-04-03T12:33:16.530Z,10.75
2023-04-03T12:48:28.478Z,10.44
2023-04-03T13:03:34.633Z,10.19
2023-04-03T13:18:41.047Z,10.06
2023-04-03T13:33:59.633Z,10.19
2023-04-03T13:49:23.824Z,9.56
2023-04-03T14:04:32.484Z,10.06
2023-04-03T14:19:38.735Z,9.94
2023-04-03T14:34:45.280Z,9.63
2023-04-03T14:49:51.011Z,9.50
2023-04-03T15:04:56.975Z,9.75
2023-04-03T15:20:03.929Z,9.38
2023-04-03T15:35:10.565Z,8.88
2023-04-03T15:50:16.084Z,8.50
2023-04-03T16:05:22.521Z,8.31
2023-04-03T16:20:29.047Z,8.19
2023-04-03T16:35:34.821Z,7.69
2023-04-03T16:50:41.967Z,7.50
2023-04-03T17:05:49.951Z,7.25
2023-04-03T17:20:55.656Z,6.94
2023-04-03T17:36:04.605Z,6.75
2023-04-03T17:51:14.875Z,6.63
2023-04-03T18:06:22.752Z,6.38
2023-04-03T18:21:28.589Z,6.19
2023-04-03T18:36:34.450Z,6.00
2023-04-03T18:51:40.828Z,5.88
2023-04-03T19:06:46.997Z,5.69
2023-04-03T19:22:12.843Z,5.75
2023-04-03T19:37:20.142Z,5.63
2023-04-03T19:52:26.222Z,5.44
2023-04-03T20:07:32.187Z,5.06
2023-04-03T20:22:39.140Z,4.81
2023-04-03T20:37:45.158Z,4.63
2023-04-03T20:52:50.849Z,4.38
2023-04-03T21:08:33.717Z,4.06
2023-04-03T21:23:39.361Z,4.13
2023-04-03T21:38:45.416Z,4.00
2023-04-03T21:53:54.188Z,3.75
2023-04-03T22:08:59.802Z,3.44
2023-04-03T22:24:05.889Z,3.44
2023-04-03T22:39:13.723Z,3.25
2023-04-03T22:54:19.509Z,3.06
2023-04-03T23:09:25.525Z,3.00
2023-04-03T23:24:31.674Z,3.13
2023-04-03T23:39:37.537Z,3.06
2023-04-03T23:54:43.318Z,2.94
